createdAt,value
2023-03-25T00:00:52.626Z,0.00
2023-03-25T00:01:52.621Z,0.00
2023-03-25T00:02:52.754Z,0.00
2023-03-25T00:03:52.616Z,0.00
2023-03-25T00:04:52.662Z,0.00
2023-03-25T00:05:52.582Z,0.00
2023-03-25T00:06:52.569Z,0.00
2023-03-25T00:07:52.579Z,0.00
2023-03-25T00:08:52.533Z,0.00
2023-03-25T00:09:52.534Z,0.00
2023-03-25T00:10:52.537Z,0.00
2023-03-25T00:11:52.542Z,0.00
2023-03-25T00:12:52.489Z,0.00
2023-03-25T00:13:52.476Z,0.00
2023-03-25T00:14:52.471Z,0.00
2023-03-25T00:15:52.572Z,0.00
2023-03-25T00:16:52.495Z,0.00
2023-03-25T00:17:52.498Z,0.00
2023-03-25T00:18:52.415Z,0.00
2023-03-25T00:19:52.432Z,0.00
2023-03-25T00:20:52.408Z,0.00
2023-03-25T00:21:52.399Z,0.00
2023-03-25T00:22:52.398Z,0.00
2023-03-25T00:23:52.380Z,0.00
2023-03-25T00:24:52.354Z,0.00
2023-03-25T00:25:52.833Z,0.00
2023-03-25T00:26:52.342Z,0.00
2023-03-25T00:27:52.321Z,0.00
2023-03-25T00:28:52.312Z,0.00
2023-03-25T00:29:52.314Z,0.00
2023-03-25T00:30:52.330Z,0.00
2023-03-25T00:31:52.305Z,0.00
2023-03-25T00:32:52.298Z,0.00
2023-03-25T00:33:52.264Z,0.00
2023-03-25T00:34:52.260Z,0.00
2023-03-25T00:35:52.562Z,0.00
2023-03-25T00:36:52.244Z,0.00
2023-03-25T00:37:52.285Z,0.00
2023-03-25T00:38:52.202Z,0.00
2023-03-25T00:39:52.199Z,0.00
2023-03-25T00:40:52.192Z,0.00
2023-03-25T00:41:52.221Z,0.00
2023-03-25T00:42:52.205Z,0.00
2023-03-25T00:43:52.164Z,0.00
2023-03-25T00:44:52.188Z,0.00
2023-03-25T00:45:52.475Z,0.00
2023-03-25T00:46:52.182Z,0.00
2023-03-25T00:47:52.150Z,0.00
2023-03-25T00:48:52.200Z,0.00
2023-03-25T00:49:52.115Z,0.00
2023-03-25T00:50:52.068Z,0.00
2023-03-25T00:51:52.751Z,0.00
2023-03-25T00:52:52.066Z,0.00
2023-03-25T00:53:52.051Z,0.00
2023-03-25T00:54:52.087Z,0.00
2023-03-25T00:55:52.250Z,0.00
2023-03-25T00:56:52.098Z,0.00
2023-03-25T00:57:52.006Z,0.00
2023-03-25T00:58:51.988Z,0.00
2023-03-25T00:59:51.968Z,0.00
2023-03-25T01:00:51.958Z,0.00
2023-03-25T01:01:51.978Z,0.00
2023-03-25T01:02:52.039Z,0.00
2023-03-25T01:03:51.946Z,0.00
2023-03-25T01:04:51.916Z,0.00
2023-03-25T01:05:52.230Z,0.00
2023-03-25T01:06:52.100Z,0.00
2023-03-25T01:07:52.000Z,0.00
2023-03-25T01:08:51.872Z,0.00
2023-03-25T01:09:51.870Z,0.00
2023-03-25T01:10:51.848Z,0.00
2023-03-25T01:11:51.844Z,0.00
2023-03-25T01:12:51.844Z,0.00
2023-03-25T01:13:51.828Z,0.00
2023-03-25T01:14:51.819Z,0.00
2023-03-25T01:15:52.023Z,0.00
2023-03-25T01:16:51.800Z,0.00
2023-03-25T01:17:51.781Z,0.00
2023-03-25T01:18:51.774Z,0.00
2023-03-25T01:19:51.841Z,0.00
2023-03-25T01:20:51.739Z,0.00
2023-03-25T01:21:51.728Z,0.00
2023-03-25T01:22:51.721Z,0.00
2023-03-25T01:23:51.747Z,0.00
2023-03-25T01:24:51.714Z,0.00
2023-03-25T01:25:51.895Z,0.00
2023-03-25T01:26:51.678Z,0.00
2023-03-25T01:27:51.663Z,0.00
2023-03-25T01:28:51.673Z,0.00
2023-03-25T01:29:51.653Z,0.00
2023-03-25T01:30:51.639Z,0.00
2023-03-25T01:31:51.718Z,0.00
2023-03-25T01:32:51.629Z,0.00
2023-03-25T01:33:51.600Z,0.00
2023-03-25T01:34:51.589Z,0.00
2023-03-25T01:35:51.823Z,0.00
2023-03-25T01:36:51.581Z,0.00
2023-03-25T01:37:51.587Z,0.00
2023-03-25T01:38:51.552Z,0.00
2023-03-25T01:39:51.566Z,0.00
2023-03-25T01:40:51.519Z,0.00
2023-03-25T01:41:51.735Z,0.00
2023-03-25T01:42:51.515Z,0.00
2023-03-25T01:43:51.536Z,0.00
2023-03-25T01:44:51.492Z,0.00
2023-03-25T01:45:51.726Z,0.00
2023-03-25T01:46:51.569Z,0.00
2023-03-25T01:47:51.490Z,0.00
2023-03-25T01:48:51.469Z,0.00
2023-03-25T01:49:51.440Z,0.00
2023-03-25T01:50:51.413Z,0.00
2023-03-25T01:51:51.426Z,0.00
2023-03-25T01:52:51.468Z,0.00
2023-03-25T01:53:51.390Z,0.00
2023-03-25T01:54:51.392Z,0.00
2023-03-25T01:55:51.529Z,0.00
2023-03-25T01:56:51.369Z,0.00
2023-03-25T01:57:51.336Z,0.00
2023-03-25T01:58:51.323Z,0.00
2023-03-25T01:59:51.317Z,0.00
2023-03-25T02:00:51.381Z,0.00
2023-03-25T02:01:51.295Z,0.00
2023-03-25T02:02:51.318Z,0.00
2023-03-25T02:03:51.338Z,0.00
2023-03-25T02:04:51.268Z,0.00
2023-03-25T02:05:51.632Z,0.00
2023-03-25T02:06:51.285Z,0.00
2023-03-25T02:07:51.256Z,0.00
2023-03-25T02:08:51.228Z,0.00
2023-03-25T02:09:51.216Z,0.00
2023-03-25T02:10:51.214Z,0.00
2023-03-25T02:11:51.217Z,0.00
2023-03-25T02:12:51.198Z,0.00
2023-03-25T02:13:51.170Z,0.00
2023-03-25T02:14:51.191Z,0.00
2023-03-25T02:15:51.272Z,0.00
2023-03-25T02:16:51.133Z,0.00
2023-03-25T02:17:51.173Z,0.00
2023-03-25T02:18:51.109Z,0.00
2023-03-25T02:19:51.110Z,0.00
2023-03-25T02:20:51.083Z,0.00
2023-03-25T02:21:51.113Z,0.00
2023-03-25T02:22:51.073Z,0.00
2023-03-25T02:23:51.056Z,0.00
2023-03-25T02:24:51.069Z,0.00
2023-03-25T02:25:51.219Z,0.00
2023-03-25T02:26:51.021Z,0.00
2023-03-25T02:27:51.054Z,0.00
2023-03-25T02:28:51.020Z,0.00
2023-03-25T02:29:50.994Z,0.00
2023-03-25T02:30:50.976Z,0.00
2023-03-25T02:31:51.028Z,0.00
2023-03-25T02:32:51.119Z,0.00
2023-03-25T02:33:50.951Z,0.00
2023-03-25T02:34:50.941Z,0.00
2023-03-25T02:35:51.080Z,0.00
2023-03-25T02:36:50.921Z,0.00
2023-03-25T02:37:51.334Z,0.00
2023-03-25T02:38:50.907Z,0.00
2023-03-25T02:39:50.878Z,0.00
2023-03-25T02:40:50.881Z,0.00
2023-03-25T02:41:50.861Z,0.00
2023-03-25T02:42:50.847Z,0.00
2023-03-25T02:43:50.860Z,0.00
2023-03-25T02:44:50.837Z,0.00
2023-03-25T02:45:51.061Z,0.00
2023-03-25T02:46:50.815Z,0.00
2023-03-25T02:47:50.831Z,0.00
2023-03-25T02:48:50.784Z,0.00
2023-03-25T02:49:50.768Z,0.00
2023-03-25T02:50:50.774Z,0.00
2023-03-25T02:51:50.769Z,0.00
2023-03-25T02:52:50.764Z,0.00
2023-03-25T02:53:50.721Z,0.00
2023-03-25T02:54:50.722Z,0.00
2023-03-25T02:55:50.873Z,0.00
2023-03-25T02:56:50.722Z,0.00
2023-03-25T02:57:50.697Z,0.00
2023-03-25T02:58:50.672Z,0.00
2023-03-25T02:59:50.696Z,0.00
2023-03-25T03:00:50.666Z,0.00
2023-03-25T03:01:50.645Z,0.00
2023-03-25T03:02:50.806Z,0.00
2023-03-25T03:03:50.630Z,0.00
2023-03-25T03:04:50.617Z,0.00
2023-03-25T03:05:50.852Z,0.00
2023-03-25T03:06:50.591Z,0.00
2023-03-25T03:07:50.591Z,0.00
2023-03-25T03:08:50.580Z,0.00
2023-03-25T03:09:50.565Z,0.00
2023-03-25T03:10:50.542Z,0.00
2023-03-25T03:11:50.533Z,0.00
2023-03-25T03:12:50.542Z,0.00
2023-03-25T03:13:50.510Z,0.00
2023-03-25T03:14:50.501Z,0.00
2023-03-25T03:15:50.804Z,0.00
2023-03-25T03:16:50.553Z,0.00
2023-03-25T03:17:50.697Z,0.00
2023-03-25T03:18:50.460Z,0.00
2023-03-25T03:19:50.437Z,0.00
2023-03-25T03:20:50.453Z,0.00
2023-03-25T03:21:50.426Z,0.00
2023-03-25T03:22:50.410Z,0.00
2023-03-25T03:23:50.406Z,0.00
2023-03-25T03:24:50.412Z,0.00
2023-03-25T03:25:50.580Z,0.00
2023-03-25T03:26:50.378Z,0.00
2023-03-25T03:27:50.372Z,0.00
2023-03-25T03:28:50.371Z,0.00
2023-03-25T03:29:50.349Z,0.00
2023-03-25T03:30:50.405Z,0.00
2023-03-25T03:32:06.700Z,0.00
2023-03-25T03:32:51.337Z,0.00
2023-03-25T03:33:50.294Z,0.00
2023-03-25T03:34:50.280Z,0.00
2023-03-25T03:35:50.868Z,0.00
2023-03-25T03:36:50.285Z,0.00
2023-03-25T03:37:50.246Z,0.00
2023-03-25T03:38:50.255Z,0.00
2023-03-25T03:39:50.230Z,0.00
2023-03-25T03:40:50.241Z,0.00
2023-03-25T03:41:50.214Z,0.00
2023-03-25T03:42:50.215Z,0.00
2023-03-25T03:43:50.205Z,0.00
2023-03-25T03:44:50.177Z,0.00
2023-03-25T03:45:50.514Z,0.00
2023-03-25T03:46:50.150Z,0.00
2023-03-25T03:47:50.241Z,0.00
2023-03-25T03:48:50.140Z,0.00
2023-03-25T03:49:50.139Z,0.00
2023-03-25T03:50:50.132Z,0.00
2023-03-25T03:51:50.097Z,0.00
2023-03-25T03:52:50.094Z,0.00
2023-03-25T03:53:50.069Z,0.00
2023-03-25T03:54:50.082Z,0.00
2023-03-25T03:55:50.215Z,0.00
2023-03-25T03:56:50.071Z,0.00
2023-03-25T03:57:50.031Z,0.00
2023-03-25T03:58:50.040Z,0.00
2023-03-25T03:59:50.022Z,0.00
2023-03-25T04:00:50.001Z,0.00
2023-03-25T04:01:50.024Z,0.00
2023-03-25T04:02:50.009Z,0.00
2023-03-25T04:03:50.056Z,0.00
2023-03-25T04:04:49.976Z,0.00
2023-03-25T04:05:50.122Z,0.00
2023-03-25T04:06:49.926Z,0.00
2023-03-25T04:07:49.920Z,0.00
2023-03-25T04:08:49.903Z,0.00
2023-03-25T04:09:49.923Z,0.00
2023-03-25T04:10:49.884Z,0.00
2023-03-25T04:11:49.880Z,0.00
2023-03-25T04:12:49.886Z,0.00
2023-03-25T04:13:49.856Z,0.00
2023-03-25T04:14:49.854Z,0.00
2023-03-25T04:15:50.068Z,0.00
2023-03-25T04:16:49.829Z,0.00
2023-03-25T04:17:49.857Z,0.00
2023-03-25T04:18:49.816Z,0.00
2023-03-25T04:19:49.825Z,0.00
2023-03-25T04:20:49.812Z,0.00
2023-03-25T04:21:49.787Z,0.00
2023-03-25T04:22:49.760Z,0.00
2023-03-25T04:23:49.757Z,0.00
2023-03-25T04:24:49.754Z,0.00
2023-03-25T04:25:50.088Z,0.00
2023-03-25T04:26:49.947Z,0.00
2023-03-25T04:27:49.732Z,0.00
2023-03-25T04:28:49.715Z,0.00
2023-03-25T04:29:49.693Z,0.00
2023-03-25T04:30:49.677Z,0.00
2023-03-25T04:31:49.881Z,0.00
2023-03-25T04:32:49.689Z,0.00
2023-03-25T04:33:49.640Z,0.00
2023-03-25T04:34:49.625Z,0.00
2023-03-25T04:35:49.821Z,0.00
2023-03-25T04:36:49.615Z,0.00
2023-03-25T04:37:49.596Z,0.00
2023-03-25T04:38:49.616Z,0.00
2023-03-25T04:39:49.575Z,0.00
2023-03-25T04:40:49.625Z,0.00
2023-03-25T04:41:49.547Z,0.00
2023-03-25T04:42:49.554Z,0.00
2023-03-25T04:43:49.522Z,0.00
2023-03-25T04:44:49.527Z,0.00
2023-03-25T04:45:50.024Z,0.00
2023-03-25T04:46:49.515Z,0.00
2023-03-25T04:47:49.557Z,0.00
2023-03-25T04:48:49.493Z,0.00
2023-03-25T04:49:49.481Z,0.00
2023-03-25T04:50:49.465Z,0.00
2023-03-25T04:51:49.487Z,0.00
2023-03-25T04:52:49.456Z,0.00
2023-03-25T04:53:49.421Z,0.00
2023-03-25T04:54:49.426Z,0.00
2023-03-25T04:55:49.773Z,0.00
2023-03-25T04:56:49.407Z,0.00
2023-03-25T04:57:49.385Z,0.00
2023-03-25T04:58:49.382Z,0.00
2023-03-25T04:59:49.368Z,0.00
2023-03-25T05:00:49.369Z,0.00
2023-03-25T05:01:49.395Z,0.00
2023-03-25T05:02:49.372Z,0.00
2023-03-25T05:03:49.318Z,0.00
2023-03-25T05:04:49.454Z,0.00
2023-03-25T05:05:49.514Z,0.00
2023-03-25T05:06:49.331Z,0.00
2023-03-25T05:07:49.294Z,0.00
2023-03-25T05:08:49.268Z,0.00
2023-03-25T05:09:49.254Z,0.00
2023-03-25T05:10:49.231Z,0.00
2023-03-25T05:11:49.240Z,0.00
2023-03-25T05:12:49.217Z,0.00
2023-03-25T05:13:49.214Z,0.00
2023-03-25T05:14:49.196Z,0.00
2023-03-25T05:15:49.408Z,0.00
2023-03-25T05:16:49.177Z,0.00
2023-03-25T05:17:49.216Z,0.00
2023-03-25T05:18:49.155Z,0.00
2023-03-25T05:19:49.146Z,0.00
2023-03-25T05:20:49.137Z,0.00
2023-03-25T05:21:49.114Z,0.00
2023-03-25T05:22:49.126Z,0.00
2023-03-25T05:23:49.126Z,0.00
2023-03-25T05:24:49.081Z,5.62
2023-03-25T05:25:49.365Z,5.62
2023-03-25T05:26:49.053Z,5.62
2023-03-25T05:27:49.041Z,5.62
2023-03-25T05:28:49.041Z,5.62
2023-03-25T05:29:49.044Z,5.62
2023-03-25T05:30:49.027Z,5.62
2023-03-25T05:31:49.102Z,5.62
2023-03-25T05:32:49.058Z,5.62
2023-03-25T05:33:49.013Z,5.62
2023-03-25T05:34:48.966Z,5.62
2023-03-25T05:35:49.119Z,5.62
2023-03-25T05:36:49.003Z,5.62
2023-03-25T05:37:48.947Z,5.62
2023-03-25T05:38:48.936Z,5.62
2023-03-25T05:39:48.953Z,5.62
2023-03-25T05:40:48.907Z,11.25
2023-03-25T05:41:48.901Z,11.25
2023-03-25T05:42:49.008Z,11.25
2023-03-25T05:43:48.869Z,11.25
2023-03-25T05:44:48.860Z,16.88
2023-03-25T05:45:49.113Z,22.50
2023-03-25T05:46:48.853Z,22.50
2023-03-25T05:47:48.884Z,28.12
2023-03-25T05:48:48.814Z,28.12
2023-03-25T05:49:48.814Z,28.12
2023-03-25T05:50:48.793Z,33.75
2023-03-25T05:51:48.788Z,33.75
2023-03-25T05:52:48.791Z,33.75
2023-03-25T05:53:48.753Z,33.75
2023-03-25T05:54:48.760Z,39.38
2023-03-25T05:55:49.085Z,39.38
2023-03-25T05:56:48.778Z,39.38
2023-03-25T05:57:48.746Z,45.00
2023-03-25T05:58:48.746Z,45.00
2023-03-25T05:59:48.706Z,45.00
2023-03-25T06:00:48.686Z,50.62
2023-03-25T06:01:48.675Z,50.62
2023-03-25T06:02:48.975Z,56.25
2023-03-25T06:03:48.733Z,56.25
2023-03-25T06:04:48.664Z,56.25
2023-03-25T06:05:48.966Z,56.25
2023-03-25T06:06:48.629Z,56.25
2023-03-25T06:07:48.638Z,56.25
2023-03-25T06:08:48.594Z,56.25
2023-03-25T06:09:48.635Z,56.25
2023-03-25T06:10:48.603Z,61.88
2023-03-25T06:11:48.590Z,67.50
2023-03-25T06:12:48.585Z,67.50
2023-03-25T06:13:48.576Z,73.12
2023-03-25T06:14:48.546Z,73.12
2023-03-25T06:15:48.927Z,73.12
2023-03-25T06:16:49.349Z,67.50
2023-03-25T06:17:57.907Z,67.50
2023-03-25T06:18:48.525Z,67.50
2023-03-25T06:19:48.502Z,67.50
2023-03-25T06:20:48.483Z,73.12
2023-03-25T06:21:48.479Z,73.12
2023-03-25T06:22:48.445Z,73.12
2023-03-25T06:23:48.457Z,78.75
2023-03-25T06:24:48.440Z,78.75
2023-03-25T06:25:48.570Z,78.75
2023-03-25T06:26:48.406Z,78.75
2023-03-25T06:27:48.601Z,78.75
2023-03-25T06:28:48.399Z,78.75
2023-03-25T06:29:48.381Z,84.38
2023-03-25T06:30:48.359Z,84.38
2023-03-25T06:31:48.377Z,90.00
2023-03-25T06:32:48.396Z,95.62
2023-03-25T06:33:48.329Z,106.88
2023-03-25T06:34:48.335Z,106.88
2023-03-25T06:35:48.735Z,112.50
2023-03-25T06:36:48.296Z,112.50
2023-03-25T06:37:48.304Z,112.50
2023-03-25T06:38:48.329Z,112.50
2023-03-25T06:39:48.273Z,123.75
2023-03-25T06:40:48.281Z,118.12
2023-03-25T06:41:48.240Z,112.50
2023-03-25T06:42:48.249Z,112.50
2023-03-25T06:43:48.294Z,112.50
2023-03-25T06:44:48.215Z,101.25
2023-03-25T06:45:48.293Z,101.25
2023-03-25T06:46:48.221Z,95.62
2023-03-25T06:47:48.217Z,95.62
2023-03-25T06:48:48.180Z,95.62
2023-03-25T06:49:48.180Z,90.00
2023-03-25T06:50:48.154Z,84.38
2023-03-25T06:51:48.148Z,78.75
2023-03-25T06:52:48.147Z,78.75
2023-03-25T06:53:48.177Z,78.75
2023-03-25T06:54:48.119Z,84.38
2023-03-25T06:55:48.191Z,90.00
2023-03-25T06:56:48.164Z,90.00
2023-03-25T06:57:48.093Z,90.00
2023-03-25T06:58:48.065Z,90.00
2023-03-25T06:59:48.096Z,90.00
2023-03-25T07:00:48.073Z,90.00
2023-03-25T07:01:48.104Z,84.38
2023-03-25T07:02:48.094Z,84.38
2023-03-25T07:03:48.011Z,78.75
2023-03-25T07:04:48.050Z,67.50
2023-03-25T07:05:48.170Z,61.88
2023-03-25T07:06:47.983Z,50.62
2023-03-25T07:07:47.968Z,50.62
2023-03-25T07:08:47.950Z,45.00
2023-03-25T07:09:47.937Z,45.00
2023-03-25T07:10:47.954Z,45.00
2023-03-25T07:11:47.958Z,45.00
2023-03-25T07:12:47.924Z,45.00
2023-03-25T07:13:47.918Z,39.38
2023-03-25T07:14:47.893Z,39.38
2023-03-25T07:15:48.021Z,39.38
2023-03-25T07:16:47.904Z,45.00
2023-03-25T07:17:47.886Z,50.62
2023-03-25T07:18:47.864Z,73.12
2023-03-25T07:19:47.844Z,84.38
2023-03-25T07:20:47.871Z,84.38
2023-03-25T07:21:47.823Z,78.75
2023-03-25T07:22:47.811Z,73.12
2023-03-25T07:23:47.831Z,73.12
2023-03-25T07:24:47.783Z,73.12
2023-03-25T07:25:47.948Z,84.38
2023-03-25T07:26:47.747Z,101.25
2023-03-25T07:27:47.740Z,101.25
2023-03-25T07:28:47.765Z,112.50
2023-03-25T07:29:47.757Z,140.62
2023-03-25T07:30:47.731Z,151.88
2023-03-25T07:31:47.770Z,163.12
2023-03-25T07:32:47.733Z,180.00
2023-03-25T07:33:47.672Z,196.88
2023-03-25T07:34:47.673Z,196.88
2023-03-25T07:35:47.773Z,196.88
2023-03-25T07:36:47.654Z,202.50
2023-03-25T07:37:47.636Z,202.50
2023-03-25T07:38:47.641Z,185.62
2023-03-25T07:39:47.620Z,174.38
2023-03-25T07:40:50.210Z,151.88
2023-03-25T07:41:47.607Z,118.12
2023-03-25T07:42:47.616Z,78.75
2023-03-25T07:43:47.578Z,67.50
2023-03-25T07:44:47.579Z,56.25
2023-03-25T07:45:47.616Z,50.62
2023-03-25T07:46:47.552Z,45.00
2023-03-25T07:47:47.625Z,39.38
2023-03-25T07:48:47.519Z,39.38
2023-03-25T07:49:47.516Z,33.75
2023-03-25T07:50:47.487Z,39.38
2023-03-25T07:51:47.479Z,45.00
2023-03-25T07:52:47.473Z,50.62
2023-03-25T07:53:47.472Z,50.62
2023-03-25T07:54:47.463Z,61.88
2023-03-25T07:55:47.444Z,78.75
2023-03-25T07:56:47.430Z,90.00
2023-03-25T07:57:47.426Z,101.25
2023-03-25T07:58:47.437Z,112.50
2023-03-25T07:59:47.402Z,123.75
2023-03-25T08:00:47.408Z,123.75
2023-03-25T08:01:47.389Z,123.75
2023-03-25T08:02:47.435Z,112.50
2023-03-25T08:03:47.506Z,101.25
2023-03-25T08:04:47.370Z,84.38
2023-03-25T08:05:47.340Z,78.75
2023-03-25T08:06:47.346Z,73.12
2023-03-25T08:07:47.321Z,67.50
2023-03-25T08:08:47.309Z,67.50
2023-03-25T08:09:47.306Z,67.50
2023-03-25T08:10:47.322Z,78.75
2023-03-25T08:11:47.275Z,90.00
2023-03-25T08:12:47.265Z,101.25
2023-03-25T08:13:47.252Z,123.75
2023-03-25T08:14:47.238Z,146.25
2023-03-25T08:15:47.224Z,174.38
2023-03-25T08:16:47.269Z,185.62
2023-03-25T08:17:47.228Z,191.25
2023-03-25T08:18:47.187Z,196.88
2023-03-25T08:19:47.188Z,196.88
2023-03-25T08:20:47.168Z,191.25
2023-03-25T08:21:47.185Z,191.25
2023-03-25T08:22:47.149Z,191.25
2023-03-25T08:23:47.137Z,191.25
2023-03-25T08:24:47.120Z,191.25
2023-03-25T08:25:47.119Z,185.62
2023-03-25T08:26:47.121Z,180.00
2023-03-25T08:27:47.098Z,168.75
2023-03-25T08:28:47.082Z,163.12
2023-03-25T08:29:47.052Z,163.12
2023-03-25T08:30:47.072Z,163.12
2023-03-25T08:31:47.200Z,174.38
2023-03-25T08:32:47.041Z,174.38
2023-03-25T08:33:47.032Z,180.00
2023-03-25T08:34:47.002Z,185.62
2023-03-25T08:35:47.050Z,185.62
2023-03-25T08:36:47.013Z,191.25
2023-03-25T08:37:46.964Z,196.88
2023-03-25T08:38:46.959Z,202.50
2023-03-25T08:39:46.946Z,208.12
2023-03-25T08:40:46.941Z,213.75
2023-03-25T08:41:46.961Z,219.38
2023-03-25T08:42:46.958Z,225.00
2023-03-25T08:43:46.921Z,225.00
2023-03-25T08:44:46.945Z,225.00
2023-03-25T08:45:46.945Z,225.00
2023-03-25T08:46:46.892Z,219.38
2023-03-25T08:47:46.922Z,213.75
2023-03-25T08:48:48.333Z,213.75
2023-03-25T08:49:46.858Z,208.12
2023-03-25T08:50:46.888Z,202.50
2023-03-25T08:51:46.848Z,196.88
2023-03-25T08:52:46.836Z,196.88
2023-03-25T08:53:46.806Z,191.25
2023-03-25T08:54:46.797Z,191.25
2023-03-25T08:55:46.828Z,191.25
2023-03-25T08:56:46.805Z,191.25
2023-03-25T08:57:46.773Z,185.62
2023-03-25T08:58:46.763Z,191.25
2023-03-25T08:59:46.765Z,191.25
2023-03-25T09:00:46.736Z,191.25
2023-03-25T09:01:46.751Z,196.88
2023-03-25T09:02:46.762Z,208.12
2023-03-25T09:03:46.725Z,219.38
2023-03-25T09:04:46.741Z,236.25
2023-03-25T09:05:46.679Z,253.12
2023-03-25T09:06:47.490Z,253.12
2023-03-25T09:07:46.783Z,253.12
2023-03-25T09:08:50.480Z,241.88
2023-03-25T09:09:46.632Z,236.25
2023-03-25T09:10:46.623Z,236.25
2023-03-25T09:11:46.628Z,230.62
2023-03-25T09:12:46.646Z,225.00
2023-03-25T09:13:46.608Z,225.00
2023-03-25T09:14:46.639Z,219.38
2023-03-25T09:15:46.595Z,213.75
2023-03-25T09:16:46.562Z,219.38
2023-03-25T09:17:46.605Z,225.00
2023-03-25T09:18:46.567Z,230.62
2023-03-25T09:19:46.531Z,236.25
2023-03-25T09:20:46.520Z,241.88
2023-03-25T09:21:46.485Z,241.88
2023-03-25T09:22:46.527Z,247.50
2023-03-25T09:23:46.519Z,247.50
2023-03-25T09:24:46.480Z,241.88
2023-03-25T09:25:46.487Z,241.88
2023-03-25T09:26:46.432Z,236.25
2023-03-25T09:27:46.471Z,247.50
2023-03-25T09:28:46.419Z,247.50
2023-03-25T09:29:46.423Z,236.25
2023-03-25T09:30:46.389Z,219.38
2023-03-25T09:31:46.439Z,219.38
2023-03-25T09:32:46.444Z,225.00
2023-03-25T09:33:46.371Z,247.50
2023-03-25T09:34:46.359Z,281.25
2023-03-25T09:35:46.335Z,298.12
2023-03-25T09:36:46.322Z,337.50
2023-03-25T09:37:46.329Z,337.50
2023-03-25T09:38:47.327Z,309.38
2023-03-25T09:39:46.332Z,286.88
2023-03-25T09:40:46.322Z,270.00
2023-03-25T09:41:46.273Z,258.75
2023-03-25T09:42:46.267Z,270.00
2023-03-25T09:43:46.244Z,270.00
2023-03-25T09:44:46.246Z,264.38
2023-03-25T09:45:46.208Z,247.50
2023-03-25T09:46:46.262Z,225.00
2023-03-25T09:47:46.271Z,213.75
2023-03-25T09:48:46.208Z,196.88
2023-03-25T09:49:46.182Z,191.25
2023-03-25T09:50:46.203Z,185.62
2023-03-25T09:51:46.178Z,157.50
2023-03-25T09:52:46.154Z,185.62
2023-03-25T09:53:46.138Z,230.62
2023-03-25T09:54:46.107Z,236.25
2023-03-25T09:55:46.147Z,225.00
2023-03-25T09:56:46.195Z,236.25
2023-03-25T09:57:46.179Z,253.12
2023-03-25T09:58:46.124Z,258.75
2023-03-25T09:59:46.060Z,230.62
2023-03-25T10:00:46.086Z,219.38
2023-03-25T10:01:46.085Z,208.12
2023-03-25T10:02:46.153Z,202.50
2023-03-25T10:03:46.041Z,202.50
2023-03-25T10:04:46.019Z,191.25
2023-03-25T10:05:46.032Z,202.50
2023-03-25T10:06:46.018Z,225.00
2023-03-25T10:07:45.976Z,236.25
2023-03-25T10:08:46.001Z,258.75
2023-03-25T10:09:45.941Z,286.88
2023-03-25T10:10:45.956Z,292.50
2023-03-25T10:11:45.984Z,315.00
2023-03-25T10:12:45.928Z,326.25
2023-03-25T10:13:45.919Z,303.75
2023-03-25T10:14:45.902Z,292.50
2023-03-25T10:15:45.924Z,303.75
2023-03-25T10:16:45.927Z,286.88
2023-03-25T10:17:45.907Z,258.75
2023-03-25T10:18:45.866Z,258.75
2023-03-25T10:19:45.864Z,286.88
2023-03-25T10:20:45.845Z,303.75
2023-03-25T10:21:45.860Z,292.50
2023-03-25T10:22:45.833Z,298.12
2023-03-25T10:23:45.801Z,303.75
2023-03-25T10:24:45.787Z,286.88
2023-03-25T10:25:45.813Z,281.25
2023-03-25T10:26:45.788Z,270.00
2023-03-25T10:27:45.809Z,247.50
2023-03-25T10:28:45.745Z,247.50
2023-03-25T10:29:45.719Z,241.88
2023-03-25T10:30:45.757Z,253.12
2023-03-25T10:31:45.758Z,270.00
2023-03-25T10:32:45.714Z,281.25
2023-03-25T10:33:45.695Z,275.62
2023-03-25T10:34:45.726Z,253.12
2023-03-25T10:35:45.710Z,264.38
2023-03-25T10:36:45.663Z,258.75
2023-03-25T10:37:45.630Z,213.75
2023-03-25T10:38:45.627Z,196.88
2023-03-25T10:39:45.617Z,191.25
2023-03-25T10:40:45.609Z,196.88
2023-03-25T10:41:45.612Z,213.75
2023-03-25T10:42:45.586Z,213.75
2023-03-25T10:43:45.606Z,213.75
2023-03-25T10:44:45.581Z,230.62
2023-03-25T10:45:45.628Z,208.12
2023-03-25T10:46:45.538Z,202.50
2023-03-25T10:47:45.617Z,196.88
2023-03-25T10:48:45.529Z,185.62
2023-03-25T10:49:45.532Z,185.62
2023-03-25T10:50:45.537Z,202.50
2023-03-25T10:51:45.508Z,253.12
2023-03-25T10:52:45.570Z,258.75
2023-03-25T10:53:45.455Z,298.12
2023-03-25T10:54:45.459Z,275.62
2023-03-25T10:55:45.445Z,230.62
2023-03-25T10:56:45.473Z,247.50
2023-03-25T10:57:45.414Z,247.50
2023-03-25T10:58:45.416Z,264.38
2023-03-25T10:59:45.474Z,264.38
2023-03-25T11:00:45.394Z,264.38
2023-03-25T11:01:45.379Z,292.50
2023-03-25T11:02:45.404Z,303.75
2023-03-25T11:03:45.392Z,264.38
2023-03-25T11:04:45.365Z,247.50
2023-03-25T11:05:45.326Z,230.62
2023-03-25T11:06:45.322Z,230.62
2023-03-25T11:07:45.286Z,281.25
2023-03-25T11:08:45.305Z,303.75
2023-03-25T11:09:45.296Z,309.38
2023-03-25T11:10:45.271Z,281.25
2023-03-25T11:11:45.278Z,275.62
2023-03-25T11:12:45.288Z,264.38
2023-03-25T11:13:45.251Z,253.12
2023-03-25T11:14:45.251Z,264.38
2023-03-25T11:15:45.307Z,286.88
2023-03-25T11:16:45.229Z,286.88
2023-03-25T11:17:45.263Z,281.25
2023-03-25T11:18:45.186Z,286.88
2023-03-25T11:19:45.183Z,292.50
2023-03-25T11:20:45.151Z,264.38
2023-03-25T11:21:45.144Z,247.50
2023-03-25T11:22:45.153Z,258.75
2023-03-25T11:23:45.143Z,270.00
2023-03-25T11:24:45.126Z,281.25
2023-03-25T11:25:45.107Z,286.88
2023-03-25T11:26:45.088Z,286.88
2023-03-25T11:27:45.094Z,292.50
2023-03-25T11:28:45.093Z,292.50
2023-03-25T11:29:45.056Z,286.88
2023-03-25T11:30:45.044Z,320.62
2023-03-25T11:31:45.061Z,354.38
2023-03-25T11:32:45.083Z,315.00
2023-03-25T11:33:45.026Z,286.88
2023-03-25T11:34:45.047Z,258.75
2023-03-25T11:35:45.026Z,270.00
2023-03-25T11:36:45.000Z,286.88
2023-03-25T11:37:44.980Z,270.00
2023-03-25T11:38:44.950Z,275.62
2023-03-25T11:39:44.953Z,275.62
2023-03-25T11:40:44.939Z,275.62
2023-03-25T11:41:44.945Z,286.88
2023-03-25T11:42:44.910Z,275.62
2023-03-25T11:43:45.386Z,264.38
2023-03-25T11:44:44.887Z,270.00
2023-03-25T11:45:44.875Z,286.88
2023-03-25T11:46:44.915Z,275.62
2023-03-25T11:47:44.928Z,253.12
2023-03-25T11:48:44.834Z,236.25
2023-03-25T11:49:44.822Z,270.00
2023-03-25T11:50:44.822Z,281.25
2023-03-25T11:51:44.835Z,320.62
2023-03-25T11:52:44.828Z,320.62
2023-03-25T11:53:44.802Z,309.38
2023-03-25T11:54:44.781Z,292.50
2023-03-25T11:55:44.778Z,343.12
2023-03-25T11:56:44.793Z,303.75
2023-03-25T11:57:44.757Z,286.88
2023-03-25T11:58:44.734Z,320.62
2023-03-25T11:59:44.721Z,298.12
2023-03-25T12:00:44.742Z,286.88
2023-03-25T12:01:44.711Z,281.25
2023-03-25T12:02:44.796Z,292.50
2023-03-25T12:03:44.815Z,298.12
2023-03-25T12:04:44.658Z,253.12
2023-03-25T12:05:44.702Z,337.50
2023-03-25T12:06:44.681Z,286.88
2023-03-25T12:07:44.643Z,275.62
2023-03-25T12:08:44.659Z,247.50
2023-03-25T12:09:44.650Z,253.12
2023-03-25T12:10:44.623Z,247.50
2023-03-25T12:11:44.634Z,219.38
2023-03-25T12:12:44.595Z,196.88
2023-03-25T12:13:44.570Z,157.50
2023-03-25T12:14:44.548Z,140.62
2023-03-25T12:15:44.603Z,140.62
2023-03-25T12:16:44.536Z,123.75
2023-03-25T12:17:44.956Z,123.75
2023-03-25T12:18:44.495Z,151.88
2023-03-25T12:19:44.533Z,196.88
2023-03-25T12:20:44.504Z,258.75
2023-03-25T12:21:44.476Z,292.50
2023-03-25T12:22:44.477Z,270.00
2023-03-25T12:23:44.461Z,281.25
2023-03-25T12:24:44.479Z,286.88
2023-03-25T12:25:44.451Z,281.25
2023-03-25T12:26:44.416Z,281.25
2023-03-25T12:27:44.413Z,281.25
2023-03-25T12:28:44.393Z,281.25
2023-03-25T12:29:44.408Z,281.25
2023-03-25T12:30:44.393Z,286.88
2023-03-25T12:31:44.429Z,213.75
2023-03-25T12:32:44.367Z,309.38
2023-03-25T12:33:44.332Z,264.38
2023-03-25T12:34:44.361Z,354.38
2023-03-25T12:35:44.407Z,298.12
2023-03-25T12:36:44.293Z,292.50
2023-03-25T12:37:44.296Z,354.38
2023-03-25T12:38:44.272Z,393.75
2023-03-25T12:39:44.309Z,382.50
2023-03-25T12:40:44.281Z,326.25
2023-03-25T12:41:44.254Z,410.62
2023-03-25T12:42:44.238Z,376.88
2023-03-25T12:43:44.216Z,236.25
2023-03-25T12:44:44.235Z,225.00
2023-03-25T12:45:44.224Z,230.62
2023-03-25T12:46:44.177Z,326.25
2023-03-25T12:47:44.208Z,337.50
2023-03-25T12:48:44.205Z,225.00
2023-03-25T12:49:44.170Z,219.38
2023-03-25T12:50:44.156Z,337.50
2023-03-25T12:51:44.177Z,337.50
2023-03-25T12:52:44.120Z,348.75
2023-03-25T12:53:44.144Z,264.38